Terminal Aerodrome Forecast
Issued by NWS Sioux Falls, SD

Home | Current Version | Previous Version | Graphics & Text | Print | Product List | Glossary On
Versions: 1 2 3 4 5 6 7 8 9 10 11 12 13 14 15 16 17 18 19 20 21 22 23 24 25 26 27 28 29 30 31
240
FTUS43 KFSD 080532
TAFSUX
TAF
KSUX 080532Z 0806/0906 34025G37KT P6SM -SN SCT030 OVC040
     FM080800 33026G38KT 5SM BLSN OVC025
     FM081500 33026G38KT P6SM OVC030
     FM082100 34020G30KT P6SM BKN025=

USA.gov is the U.S. government's official web portal to all federal, state and local government web resources and services.